Latest Coastal Weather Observations for East Sale Airport

IDV60701

Issued at 7:52 pm EST Monday 4 May 2026 (issued every 10 minutes, with the page automatically refreshed every 10 minutes)

About coastal observations | Map of coastal stations | Coastal observations for VIC | Marine services | Other Formats
Station Details ID: 085314 Name: EAST SALE AIRPORT Lat: -38.10 Lon: 147.14 Height: 5.3 m
Data from the previous 72 hours. | See also: Recent months at East Sale Airport
Date/Time
EST
Wind Sea
Height
m
Swell Vis
km
Cloud Weather Temp
°C
Press
MSL
hPa
Rain since
9am
mm
Dir  Spd
kts
Gust
kts
Height
m
Period
s
Dir
04/07:30pm N 2 4 - - - - 10 Partly cloudy - 13.3 1011.2 0.0
04/07:00pm NNE 5 6 - - - - 10 - - 13.3 1011.1 0.0
04/06:30pm NE 6 8 - - - - 10 - - 15.4 1010.6 0.0
04/06:00pm NNW 6 8 - - - - 10 Mostly clear - 15.3 1010.6 0.0
04/05:30pm N 6 8 - - - - 10 - - 15.2 1010.4 0.0
04/05:00pm NW 7 11 - - - - 10 Partly cloudy - 18.2 1010.2 0.0
04/04:30pm WNW 7 9 - - - - 10 Cloudy - 20.1 1010.0 0.0
04/04:00pm N 5 7 - - - - 10 Partly cloudy - 19.4 1009.8 0.0
04/03:30pm N 7 9 - - - - 10 Partly cloudy - 19.7 1009.9 0.0
04/03:00pm NNW 6 8 - - - - 10 Mostly cloudy - 20.3 1009.9 0.0
04/02:30pm NNW 7 9 - - - - 10 Partly cloudy - 20.5 1009.9 0.0
04/02:00pm NNW 8 12 - - - - 10 Partly cloudy - 20.2 1009.9 0.0
04/01:30pm NNW 10 14 - - - - 10 Mostly clear - 20.6 1010.1 0.0
04/01:00pm N 9 13 - - - - 10 - - 20.7 1010.5 0.0
04/12:30pm N 11 15 - - - - 10 - - 20.4 1010.8 0.0
04/12:00pm NNE 8 13 - - - - 10 - - 20.5 1011.7 0.0
04/11:30am NNE 12 15 - - - - 10 - - 19.5 1011.8 0.0
04/11:00am NE 7 10 - - - - 10 - - 19.1 1012.6 0.0
04/10:30am NNE 6 8 - - - - 10 - - 18.2 1012.7 0.0
04/10:00am N 6 9 - - - - 10 - - 17.2 1012.9 0.0
04/09:30am NNW 6 9 - - - - 10 Mostly clear - 15.8 1013.1 0.0
04/09:00am NNW 5 7 - - - - 10 - - 14.6 1013.3 8.0
04/08:30am NW 6 7 - - - - 10 - - 13.8 1013.3 8.0
04/08:00am NW 5 7 - - - - 10 Mostly clear - 13.0 1013.3 8.0
04/07:30am NNW 7 8 - - - - 10 Partly cloudy - 11.8 1012.9 8.0
04/07:00am NW 4 5 - - - - 10 Mostly clear - 10.7 1012.4 8.0
04/06:30am NW 6 8 - - - - 10 Mostly clear - 11.1 1011.9 8.0
04/06:00am NW 4 5 - - - - 2 - - 10.6 1012.3 8.0
04/05:58am NW 4 5 - - - - 1 - - 10.7 1012.3 8.0
04/05:47am NNW 3 5 - - - - 0.9 - - 10.9 1012.3 8.0
04/05:42am N 4 5 - - - - 1 - - 10.3 1012.3 8.0
04/05:38am NNW 3 5 - - - - 0.9 - - 10.2 1012.3 8.0
04/05:31am CALM 0 4 - - - - 2 - - 10.1 1012.3 8.0
04/05:30am CALM 0 1 - - - - 7 - - 10.7 1012.3 8.0
04/05:00am SW 4 5 - - - - 10 - - 11.1 1012.2 8.0
04/04:30am NNW 5 6 - - - - 10 Partly cloudy - 12.8 1012.3 8.0
04/04:00am NW 5 8 - - - - 10 Partly cloudy - 13.6 1012.1 8.0
04/03:30am CALM 0 0 - - - - 10 Partly cloudy - 14.1 1012.1 8.0
04/03:00am CALM 0 0 - - - - 10 Cloudy Rain 14.2 1012.2 8.0
04/02:30am SE 4 6 - - - - 10 Cloudy - 14.2 1012.3 8.0
04/02:00am CALM 0 5 - - - - 10 Partly cloudy - 14.4 1012.5 8.0
04/01:30am E 2 3 - - - - 10 Partly cloudy - 14.7 1012.9 8.0
04/01:00am CALM 0 2 - - - - 10 Partly cloudy - 15.0 1013.1 8.0
04/12:30am SSW 1 3 - - - - 10 Partly cloudy - 15.1 1013.0 8.0
04/12:00am NE 2 3 - - - - 10 Cloudy - 15.2 1013.2 8.0
 
Date/Time
EST
Wind Sea
Height
m
Swell Vis
km
Cloud Weather Temp
°C
Press
MSL
hPa
Rain since
9am
mm
Dir  Spd
kts
Gust
kts
Height
m
Period
s
Dir
03/11:30pm SSW 2 4 - - - - 10 Partly cloudy - 15.1 1012.6 8.0
03/11:00pm SW 6 8 - - - - 10 Cloudy - 15.6 1012.9 8.0
03/10:30pm WSW 5 6 - - - - 10 Partly cloudy - 15.7 1012.5 8.0
03/10:00pm SSW 4 6 - - - - 10 Partly cloudy - 15.6 1012.4 8.0
03/09:30pm SSW 6 8 - - - - 10 Partly cloudy - 16.1 1012.4 8.0
03/09:16pm SW 6 8 - - - - 10 Mostly clear - 16.5 1012.4 8.0
03/09:00pm WSW 6 8 - - - - 10 Cloudy Rain 17.0 1012.4 7.8
03/08:41pm WNW 5 6 - - - - 10 Partly cloudy - 17.5 1012.5 7.6
03/08:30pm NW 6 10 - - - - 10 Mostly clear - 17.6 1012.3 7.6
03/08:00pm NW 6 10 - - - - 10 Mostly clear - 17.7 1012.3 7.2
03/07:30pm NE 9 12 - - - - 10 Cloudy - 18.0 1011.4 6.6
03/07:00pm NE 7 9 - - - - 10 Cloudy - 18.1 1011.0 5.6
03/06:37pm S 4 5 - - - - 10 Mostly clear - 17.6 1010.8 3.8
03/06:30pm S 3 5 - - - - 8 Mostly clear - 17.7 1010.9 3.4
03/06:21pm WNW 3 5 - - - - 6 Mostly clear - 17.9 1011.1 2.6
03/06:00pm NE 4 6 - - - - 10 Cloudy Showers 18.6 1010.7 1.4
03/05:30pm E 7 9 - - - - 10 Partly cloudy - 18.3 1010.0 0.8
03/05:00pm SSE 6 8 - - - - 10 Cloudy - 18.8 1010.2 0.8
03/04:30pm ESE 6 8 - - - - 10 Partly cloudy - 19.4 1010.2 0.8
03/04:00pm SE 3 5 - - - - 10 Partly cloudy - 20.4 1010.4 0.8
03/03:30pm SE 5 5 - - - - 10 Partly cloudy - 20.4 1011.0 0.8
03/03:00pm S 4 4 - - - - 10 Cloudy Showers 20.4 1011.2 0.8
03/02:30pm WNW 8 12 - - - - 10 Partly cloudy - 20.4 1012.1 0.2
03/02:00pm N 7 10 - - - - 10 Partly cloudy - 23.1 1011.0 0.0
03/01:30pm N 10 13 - - - - 10 Mostly clear - 23.5 1011.0 0.0
03/01:00pm N 14 20 - - - - 10 Mostly clear - 24.1 1011.3 0.0
03/12:30pm N 13 18 - - - - 10 Partly cloudy - 24.3 1011.5 0.0
03/12:00pm NNE 14 19 - - - - 10 Cloudy - 23.6 1011.7 0.0
03/11:30am NNE 11 16 - - - - 10 Cloudy - 23.5 1012.1 0.0
03/11:00am NE 10 14 - - - - 10 - - 22.8 1012.5 0.0
03/10:30am NE 6 8 - - - - 10 - - 19.2 1012.7 0.0
03/10:00am NNW 3 4 - - - - 10 - - 16.0 1013.3 0.0
03/09:30am NW 5 7 - - - - 10 Mostly clear - 15.3 1013.6 0.0
03/09:00am N 7 11 - - - - 10 Cloudy - 18.2 1014.0 0.0
03/08:30am NNE 7 11 - - - - 10 Mostly clear - 19.2 1014.1 0.0
03/08:00am ENE 7 10 - - - - 10 - - 18.3 1014.0 0.0
03/07:30am NE 9 12 - - - - 10 Mostly clear - 18.4 1013.6 0.0
03/07:00am NE 6 8 - - - - 10 - - 17.7 1013.7 0.0
03/06:30am SE 2 7 - - - - 10 - - 15.4 1013.7 0.0
03/06:00am NNE 5 7 - - - - 10 Partly cloudy - 16.6 1013.5 0.0
03/05:30am E 5 7 - - - - 10 - - 15.8 1013.4 0.0
03/05:00am NE 6 8 - - - - 10 - - 16.7 1013.5 0.0
03/04:30am NE 4 5 - - - - 10 - - 15.0 1013.7 0.0
03/04:00am E 6 7 - - - - 10 - - 14.3 1013.7 0.0
03/03:30am NE 6 8 - - - - 10 - - 15.9 1014.0 0.0
03/03:00am ENE 7 9 - - - - 10 Cloudy - 14.4 1014.3 0.0
03/02:30am ENE 8 11 - - - - 10 - - 15.8 1014.5 0.0
03/02:00am ENE 7 9 - - - - 10 - - 15.4 1014.9 0.0
03/01:30am NE 8 10 - - - - 10 - - 16.6 1015.1 0.0
03/01:00am SE 4 5 - - - - 10 - - 14.6 1015.4 0.0
03/12:30am ENE 7 8 - - - - 10 - - 14.7 1015.6 0.0
03/12:00am ENE 8 10 - - - - 10 Mostly clear - 15.9 1016.0 0.0
 
Date/Time
EST
Wind Sea
Height
m
Swell Vis
km
Cloud Weather Temp
°C
Press
MSL
hPa
Rain since
9am
mm
Dir  Spd
kts
Gust
kts
Height
m
Period
s
Dir
02/11:30pm ENE 3 4 - - - - 10 - - 15.2 1016.2 0.0
02/11:00pm ENE 6 8 - - - - 10 - - 15.1 1016.4 0.0
02/10:30pm NE 8 10 - - - - 10 - - 17.2 1016.6 0.0
02/10:00pm ENE 4 5 - - - - 10 - - 15.0 1016.7 0.0
02/09:30pm ENE 3 5 - - - - 10 - - 16.2 1017.0 0.0
02/09:00pm ENE 4 7 - - - - 10 Cloudy - 16.3 1017.1 0.0
02/08:30pm NE 9 11 - - - - 10 - - 17.6 1017.0 0.0
02/08:00pm ENE 5 7 - - - - 10 - - 16.0 1017.1 0.0
02/07:30pm ENE 5 6 - - - - 10 - - 16.0 1017.3 0.0
02/07:00pm E 6 7 - - - - 10 - - 15.8 1017.6 0.0
02/06:30pm ENE 8 9 - - - - 10 - - 17.4 1017.2 0.0
02/06:00pm ENE 8 11 - - - - 10 Cloudy - 17.9 1017.1 0.0
02/05:30pm NE 9 13 - - - - 10 - - 19.3 1016.9 0.0
02/05:00pm ENE 10 13 - - - - 10 - - 19.2 1016.9 0.0
02/04:30pm NE 8 11 - - - - 10 - - 20.2 1016.9 0.0
02/04:00pm NE 9 11 - - - - 10 - - 20.8 1016.8 0.0
02/03:30pm NE 7 11 - - - - 10 - - 21.6 1017.3 0.0
02/03:00pm NE 6 8 - - - - 10 Partly cloudy - 22.4 1017.3 0.0
02/02:30pm NE 7 8 - - - - 10 - - 22.9 1017.4 0.0
02/02:00pm NNE 4 6 - - - - 10 - - 22.6 1017.6 0.0
02/01:30pm NNW 3 4 - - - - 10 - - 22.7 1018.2 0.0
02/01:00pm NNW 6 7 - - - - 10 - - 22.7 1018.6 0.0
02/12:30pm NNW 7 11 - - - - 10 - - 23.3 1019.0 0.0
02/12:00pm N 5 7 - - - - 10 - - 24.0 1019.5 0.0
02/11:30am NE 3 5 - - - - 10 - - 22.6 1020.0 0.0
02/11:00am CALM 0 0 - - - - 10 - - 21.2 1020.4 0.0
02/10:30am CALM 0 0 - - - - 10 - - 19.5 1020.7 0.0
02/10:00am NNW 2 4 - - - - 10 - - 19.2 1020.8 0.0
02/09:30am NNW 4 5 - - - - 10 - - 17.3 1021.2 0.0
02/09:00am NW 4 5 - - - - 10 - - 15.8 1021.2 0.0
02/08:30am NW 3 5 - - - - 10 - - 13.8 1021.1 0.0
02/08:00am CALM 0 0 - - - - 10 - - 11.5 1021.1 0.0
02/07:30am NW 5 6 - - - - 10 - - 10.3 1021.0 0.0
02/07:00am NW 3 4 - - - - 10 - - 9.0 1021.0 0.0
02/06:30am CALM 0 0 - - - - 10 - - 9.2 1021.0 0.0
02/06:00am CALM 0 0 - - - - 10 - - 9.5 1020.9 0.0
02/05:30am CALM 0 0 - - - - 10 - - 9.1 1020.8 0.0
02/05:00am CALM 0 0 - - - - 10 - - 9.2 1020.7 0.0
02/04:30am NW 1 4 - - - - 10 - - 9.8 1020.7 0.0
02/04:00am WNW 4 5 - - - - 10 - - 9.1 1020.8 0.0
02/03:30am SSW 3 4 - - - - 10 - - 8.8 1020.7 0.0
02/03:00am WNW 3 4 - - - - 10 Mostly clear - 9.0 1020.9 0.0
02/02:30am CALM 0 0 - - - - 10 - - 9.0 1021.3 0.0
02/02:00am CALM 0 0 - - - - 10 - - 9.9 1021.6 0.0
02/01:30am CALM 0 0 - - - - 10 - - 10.2 1021.9 0.0
02/01:00am N 3 4 - - - - 10 - - 10.3 1022.1 0.0
02/12:30am N 5 6 - - - - 10 - - 10.9 1022.3 0.0
02/12:00am NNW 5 6 - - - - 10 - - 10.8 1022.5 0.0
 
Date/Time
EST
Wind Sea
Height
m
Swell Vis
km
Cloud Weather Temp
°C
Press
MSL
hPa
Rain since
9am
mm
Dir  Spd
kts
Gust
kts
Height
m
Period
s
Dir
01/11:30pm NW 3 4 - - - - 10 - - 12.2 1022.6 0.0
01/11:00pm SSW 3 4 - - - - 10 - - 12.7 1022.8 0.0
01/10:30pm SSW 5 5 - - - - 10 - - 13.1 1023.2 0.0
01/10:00pm SSE 4 5 - - - - 10 - - 12.1 1023.3 0.0
01/09:30pm SE 4 4 - - - - 10 - - 13.6 1023.3 0.0
01/09:00pm SE 4 4 - - - - 10 - - 13.7 1023.3 0.0
01/08:30pm SE 5 5 - - - - 10 Mostly clear - 13.8 1023.2 0.0
01/08:00pm SE 5 6 - - - - 10 Partly cloudy - 13.8 1023.3 0.0

Other formats

Comma delimited format used in spreadsheet applications
http://www.bom.gov.au/fwo/IDV60701/IDV60701.95907.axf

JavaScript Object Notation format (JSON) in row-major order
http://www.bom.gov.au/fwo/IDV60701/IDV60701.95907.json

Data quality

Most of these data are generated automatically and are frequently updated. Quality checks on data are not normally performed. It is possible for incorrect values to appear. Refer to information at About Latest Weather Observations and please check the disclaimer before using these data.